createdAt,value
2022-09-06T00:01:18.184Z,99749.06
2022-09-06T00:03:19.772Z,99761.34
2022-09-06T00:05:21.691Z,99762.78
2022-09-06T00:07:23.272Z,99768.50
2022-09-06T00:09:25.455Z,99767.69
2022-09-06T00:11:27.192Z,99778.09
2022-09-06T00:13:28.870Z,99780.72
2022-09-06T00:15:30.967Z,99772.81
2022-09-06T00:17:33.970Z,99772.00
2022-09-06T00:19:35.732Z,99772.78
2022-09-06T00:21:37.282Z,99777.19
2022-09-06T00:23:38.850Z,99783.16
2022-09-06T00:25:41.845Z,99778.44
2022-09-06T00:27:43.422Z,99770.78
2022-09-06T00:29:45.016Z,99771.75
2022-09-06T00:31:46.594Z,99774.28
2022-09-06T00:33:48.233Z,99769.75
2022-09-06T00:35:50.223Z,99766.97
2022-09-06T00:37:59.291Z,99750.09
2022-09-06T00:40:00.990Z,99747.28
2022-09-06T00:42:02.686Z,99751.72
2022-09-06T00:44:04.848Z,99772.81
2022-09-06T00:46:09.064Z,99787.56
2022-09-06T00:48:10.747Z,99792.22
2022-09-06T00:50:15.740Z,99818.69
2022-09-06T00:52:19.791Z,99876.53
2022-09-06T00:54:21.669Z,99886.38
2022-09-06T00:56:25.159Z,99871.88
2022-09-06T00:58:27.133Z,99894.13
2022-09-06T01:00:28.904Z,99891.84
2022-09-06T01:02:30.735Z,99858.28
2022-09-06T01:04:33.429Z,99884.16
2022-09-06T01:06:48.062Z,99919.94
2022-09-06T01:09:01.666Z,99909.66
2022-09-06T01:11:46.645Z,99920.91
2022-09-06T01:13:54.635Z,99926.28
2022-09-06T01:16:22.446Z,99924.41
2022-09-06T01:18:27.102Z,99907.75
2022-09-06T01:20:31.471Z,99877.25
2022-09-06T01:22:57.261Z,99863.09
2022-09-06T01:25:21.965Z,99874.13
2022-09-06T01:27:29.883Z,99857.25
2022-09-06T01:29:44.465Z,99869.31
2022-09-06T01:31:52.479Z,99881.66
2022-09-06T01:34:07.751Z,99892.75
2022-09-06T01:36:13.608Z,99864.06
2022-09-06T01:38:17.023Z,99843.19
2022-09-06T01:40:18.808Z,99824.75
2022-09-06T01:42:25.778Z,99828.16
2022-09-06T01:44:30.621Z,99821.97
2022-09-06T01:46:43.123Z,99821.72
2022-09-06T01:49:00.170Z,99836.16
2022-09-06T01:51:49.069Z,99841.03
2022-09-06T01:54:09.173Z,99856.09
2022-09-06T01:56:19.984Z,99856.94
2022-09-06T01:58:44.478Z,99840.69
2022-09-06T02:00:59.016Z,99854.31
2022-09-06T02:03:18.973Z,99837.91
2022-09-06T02:05:36.098Z,99877.75
2022-09-06T02:07:38.987Z,99847.88
2022-09-06T02:09:45.217Z,99867.16
2022-09-06T02:11:52.406Z,99884.34
2022-09-06T02:14:05.046Z,99872.06
2022-09-06T02:16:10.418Z,99859.78
2022-09-06T02:18:15.986Z,99875.00
2022-09-06T02:20:22.960Z,99842.75
2022-09-06T02:22:29.375Z,99824.16
2022-09-06T02:24:32.855Z,99801.59
2022-09-06T02:26:43.668Z,99808.22
2022-09-06T02:28:45.519Z,99774.88
2022-09-06T02:30:51.119Z,99764.94
2022-09-06T02:33:08.475Z,99798.13
2022-09-06T02:35:15.017Z,99786.28
2022-09-06T02:37:17.323Z,99766.69
2022-09-06T02:39:19.073Z,99758.06
2022-09-06T02:41:23.175Z,99781.09
2022-09-06T02:43:24.820Z,99786.63
2022-09-06T02:45:26.413Z,99819.50
2022-09-06T02:47:27.988Z,99800.50
2022-09-06T02:49:31.157Z,99855.94
2022-09-06T02:51:38.816Z,99867.63
2022-09-06T02:53:40.398Z,99863.41
2022-09-06T02:55:42.281Z,99863.06
2022-09-06T02:57:43.907Z,99896.03
2022-09-06T02:59:46.273Z,99875.09
2022-09-06T03:01:47.904Z,99886.53
2022-09-06T03:03:49.477Z,99880.53
2022-09-06T03:05:52.630Z,99898.31
2022-09-06T03:07:55.100Z,99908.94
2022-09-06T03:09:57.105Z,99898.06
2022-09-06T03:11:58.786Z,99900.97
2022-09-06T03:14:00.337Z,99903.97
2022-09-06T03:16:02.234Z,99892.28
2022-09-06T03:18:03.928Z,99899.00
2022-09-06T03:20:06.372Z,99887.84
2022-09-06T03:22:08.051Z,99898.59
2022-09-06T03:24:09.622Z,99880.22
2022-09-06T03:26:11.598Z,99899.59
2022-09-06T03:28:13.613Z,99906.00
2022-09-06T03:30:15.447Z,99911.38
2022-09-06T03:32:17.017Z,99913.66
2022-09-06T03:34:18.685Z,99906.56
2022-09-06T03:36:20.459Z,99902.38
2022-09-06T03:38:23.579Z,99907.06
2022-09-06T03:40:25.239Z,99905.22
2022-09-06T03:42:27.572Z,99908.78
2022-09-06T03:44:29.385Z,99916.34
2022-09-06T03:46:31.093Z,99920.28
2022-09-06T03:48:32.743Z,99920.63
2022-09-06T03:50:34.415Z,99921.06
2022-09-06T03:52:36.014Z,99913.44
2022-09-06T03:54:37.555Z,99905.91
2022-09-06T03:56:39.107Z,99903.97
2022-09-06T03:58:40.821Z,99907.41
2022-09-06T04:00:42.437Z,99904.56
2022-09-06T04:02:44.106Z,99897.66
2022-09-06T04:04:46.103Z,99868.44
2022-09-06T04:06:47.680Z,99871.63
2022-09-06T04:08:49.402Z,99872.03
2022-09-06T04:10:53.743Z,99885.97
2022-09-06T04:12:55.308Z,99890.78
2022-09-06T04:14:56.886Z,99887.44
2022-09-06T04:16:58.511Z,99877.88
2022-09-06T04:19:01.887Z,99886.09
2022-09-06T04:21:03.966Z,99895.19
2022-09-06T04:23:05.764Z,99868.59
2022-09-06T04:25:08.314Z,99875.81
2022-09-06T04:27:09.917Z,99894.25
2022-09-06T04:29:11.513Z,99893.41
2022-09-06T04:31:13.131Z,99904.34
2022-09-06T04:33:14.784Z,99893.59
2022-09-06T04:35:16.639Z,99873.69
2022-09-06T04:37:20.110Z,99884.13
2022-09-06T04:39:21.695Z,99893.47
2022-09-06T04:41:23.347Z,99884.69
2022-09-06T04:43:24.978Z,99890.81
2022-09-06T04:45:26.660Z,99905.03
2022-09-06T04:47:28.428Z,99894.81
2022-09-06T04:49:29.987Z,99886.69
2022-09-06T04:51:31.745Z,99892.34
2022-09-06T04:53:33.339Z,99881.75
2022-09-06T04:55:34.996Z,99880.25
2022-09-06T04:57:38.197Z,99878.31
2022-09-06T04:59:42.549Z,99877.00
2022-09-06T05:01:44.182Z,99870.44
2022-09-06T05:03:46.004Z,99878.31
2022-09-06T05:05:47.543Z,99875.09
2022-09-06T05:07:52.995Z,99860.91
2022-09-06T05:09:54.645Z,99862.75
2022-09-06T05:11:56.402Z,99887.97
2022-09-06T05:13:57.955Z,99889.63
2022-09-06T05:16:04.041Z,99889.38
2022-09-06T05:18:06.734Z,99899.44
2022-09-06T05:20:09.013Z,99893.59
2022-09-06T05:22:11.962Z,99903.50
2022-09-06T05:24:13.563Z,99885.47
2022-09-06T05:26:15.117Z,99879.53
2022-09-06T05:28:17.558Z,99899.63
2022-09-06T05:30:19.724Z,99890.59
2022-09-06T05:32:21.309Z,99877.88
2022-09-06T05:34:22.929Z,99892.34
2022-09-06T05:36:25.863Z,99872.88
2022-09-06T05:38:31.408Z,99884.50
2022-09-06T05:40:33.164Z,99874.97
2022-09-06T05:42:34.799Z,99892.94
2022-09-06T05:44:37.327Z,99892.81
2022-09-06T05:46:45.423Z,99897.84
2022-09-06T05:49:00.477Z,99893.31
2022-09-06T05:51:06.464Z,99888.31
2022-09-06T05:53:08.054Z,99911.69
2022-09-06T05:55:09.860Z,99899.97
2022-09-06T05:57:11.433Z,99904.63
2022-09-06T05:59:13.040Z,99908.94
2022-09-06T06:01:16.502Z,99928.19
2022-09-06T06:03:18.091Z,99893.78
2022-09-06T06:05:19.889Z,99906.25
2022-09-06T06:07:21.467Z,99912.22
2022-09-06T06:09:23.047Z,99896.16
2022-09-06T06:11:26.050Z,99891.84
2022-09-06T06:13:29.995Z,99897.47
2022-09-06T06:15:32.473Z,99883.59
2022-09-06T06:17:34.359Z,99905.94
2022-09-06T06:19:36.607Z,99900.94
2022-09-06T06:21:39.066Z,99903.50
2022-09-06T06:23:42.154Z,99900.31
2022-09-06T06:25:43.716Z,99912.25
2022-09-06T06:27:45.269Z,99913.91
2022-09-06T06:29:46.886Z,99894.06
2022-09-06T06:31:48.495Z,99897.72
2022-09-06T06:33:50.591Z,99911.66
2022-09-06T06:36:02.248Z,99910.06
2022-09-06T06:38:03.806Z,99902.03
2022-09-06T06:40:05.916Z,99911.00
2022-09-06T06:42:07.715Z,99937.66
2022-09-06T06:44:09.283Z,99930.66
2022-09-06T06:46:18.651Z,99926.78
2022-09-06T06:48:21.058Z,99933.06
2022-09-06T06:50:22.620Z,99938.38
2022-09-06T06:52:24.513Z,99936.06
2022-09-06T06:54:26.154Z,99921.91
2022-09-06T06:56:36.104Z,99913.50
2022-09-06T06:58:37.678Z,99891.75
2022-09-06T07:00:39.273Z,99884.34
2022-09-06T07:02:40.831Z,99876.44
2022-09-06T07:04:43.514Z,99867.69
2022-09-06T07:09:12.088Z,99887.44
2022-09-06T07:11:15.575Z,99876.38
2022-09-06T07:13:17.199Z,99861.84
2022-09-06T07:15:19.386Z,99903.91
2022-09-06T07:17:21.001Z,99892.38
2022-09-06T07:21:44.207Z,99894.97
2022-09-06T07:26:08.583Z,99881.28
2022-09-06T07:28:10.172Z,99898.91
2022-09-06T07:30:12.374Z,99851.72
2022-09-06T07:32:14.006Z,99888.78
2022-09-06T07:34:17.765Z,99857.91
2022-09-06T07:36:19.386Z,99900.41
2022-09-06T07:38:20.947Z,99876.88
2022-09-06T07:40:24.010Z,99870.25
2022-09-06T07:42:25.595Z,99887.84
2022-09-06T07:44:28.859Z,99874.94
2022-09-06T07:46:30.535Z,99879.00
2022-09-06T07:48:34.767Z,99911.28
2022-09-06T07:50:52.631Z,99936.34
2022-09-06T07:53:14.847Z,99929.13
2022-09-06T07:55:17.343Z,99912.03
2022-09-06T07:57:18.962Z,99938.78
2022-09-06T07:59:20.577Z,99925.25
2022-09-06T08:01:32.545Z,99904.13
2022-09-06T08:03:34.099Z,99909.84
2022-09-06T08:10:18.895Z,99925.34
2022-09-06T08:12:20.512Z,99939.97
2022-09-06T08:14:22.123Z,99928.81
2022-09-06T08:16:25.854Z,99940.44
2022-09-06T08:18:27.699Z,99916.81
2022-09-06T08:20:29.355Z,99926.44
2022-09-06T08:22:34.280Z,99942.88
2022-09-06T08:24:35.908Z,99934.00
2022-09-06T08:26:45.089Z,99907.41
2022-09-06T08:28:47.294Z,99923.34
2022-09-06T08:30:48.903Z,99916.97
2022-09-06T08:32:51.628Z,99920.31
2022-09-06T08:34:53.287Z,99943.69
2022-09-06T08:36:54.867Z,99931.09
2022-09-06T08:38:57.472Z,99945.72
2022-09-06T08:41:13.967Z,99928.66
2022-09-06T08:43:18.542Z,99931.69
2022-09-06T08:45:21.793Z,99938.03
2022-09-06T08:47:23.634Z,99957.00
2022-09-06T08:49:29.447Z,99921.06
2022-09-06T08:52:06.229Z,99954.81
2022-09-06T08:54:15.778Z,99918.97
2022-09-06T08:56:23.375Z,99953.59
2022-09-06T08:58:52.774Z,99942.56
2022-09-06T09:01:18.651Z,99948.56
2022-09-06T09:03:25.157Z,99930.16
2022-09-06T09:05:30.329Z,99945.78
2022-09-06T09:07:48.136Z,99913.34
2022-09-06T09:09:52.237Z,99923.25
2022-09-06T09:11:53.871Z,99947.47
2022-09-06T09:14:01.771Z,99951.78
2022-09-06T09:16:05.097Z,99927.47
2022-09-06T09:18:06.754Z,99948.13
2022-09-06T09:20:09.022Z,99937.41
2022-09-06T09:22:18.542Z,99934.31
2022-09-06T09:24:20.097Z,99949.91
2022-09-06T09:26:25.377Z,99929.56
2022-09-06T09:28:27.047Z,99943.94
2022-09-06T09:30:50.290Z,99950.28
2022-09-06T09:32:52.123Z,99935.13
2022-09-06T09:34:53.908Z,99908.31
2022-09-06T09:39:38.464Z,99921.38
2022-09-06T09:41:43.711Z,99925.91
2022-09-06T09:44:00.108Z,99907.53
2022-09-06T09:46:23.739Z,99883.03
2022-09-06T09:48:27.685Z,99941.03
2022-09-06T09:50:35.112Z,99898.56
2022-09-06T09:52:44.552Z,99883.59
2022-09-06T09:54:46.937Z,99917.88
2022-09-06T09:56:53.021Z,99894.41
2022-09-06T09:58:56.886Z,99919.66
2022-09-06T10:01:17.115Z,99893.66
2022-09-06T10:03:29.746Z,99893.09
2022-09-06T10:05:31.429Z,99884.00
2022-09-06T10:07:34.377Z,99882.03
2022-09-06T10:09:46.294Z,99902.41
2022-09-06T10:11:59.000Z,99883.75
2022-09-06T10:14:11.437Z,99887.25
2022-09-06T10:16:13.249Z,99871.22
2022-09-06T10:18:20.755Z,99869.75
2022-09-06T10:20:52.220Z,99876.97
2022-09-06T10:22:59.804Z,99871.50
2022-09-06T10:25:07.267Z,99845.66
2022-09-06T10:27:08.877Z,99866.69
2022-09-06T10:29:10.512Z,99873.09
2022-09-06T10:31:22.335Z,99874.84
2022-09-06T10:33:35.559Z,99874.53
2022-09-06T10:35:38.207Z,99893.13
2022-09-06T10:38:13.456Z,99895.56
2022-09-06T10:40:34.959Z,99891.34
2022-09-06T10:42:54.586Z,99871.25
2022-09-06T10:45:20.828Z,99862.38
2022-09-06T10:47:28.840Z,99876.84
2022-09-06T10:49:33.476Z,99876.59
2022-09-06T10:51:44.099Z,99869.03
2022-09-06T10:54:00.751Z,99872.97
2022-09-06T10:56:06.944Z,99871.53
2022-09-06T10:58:19.803Z,99866.88
2022-09-06T11:04:01.892Z,99829.50
2022-09-06T11:06:11.478Z,99854.06
2022-09-06T11:08:53.465Z,99861.97
2022-09-06T11:10:57.053Z,99846.50
2022-09-06T11:13:18.325Z,99846.03
2022-09-06T11:15:23.591Z,99859.47
2022-09-06T11:17:49.180Z,99844.97
2022-09-06T11:20:08.284Z,99846.28
2022-09-06T11:22:24.755Z,99847.13
2022-09-06T11:25:03.721Z,99852.78
2022-09-06T11:27:14.932Z,99839.75
2022-09-06T11:29:28.591Z,99833.81
2022-09-06T11:34:32.699Z,99841.41
2022-09-06T11:36:45.203Z,99837.72
2022-09-06T11:38:58.682Z,99827.38
2022-09-06T11:41:12.653Z,99833.03
2022-09-06T11:43:45.392Z,99833.06
2022-09-06T11:45:47.592Z,99824.28
2022-09-06T11:47:51.788Z,99821.97
2022-09-06T11:49:53.395Z,99821.09
2022-09-06T11:51:55.421Z,99825.91
2022-09-06T11:53:57.768Z,99815.84
2022-09-06T11:56:02.170Z,99790.34
2022-09-06T11:58:10.727Z,99795.06
2022-09-06T12:00:23.811Z,99793.44
2022-09-06T12:02:41.071Z,99799.22
2022-09-06T12:05:04.687Z,99797.84
2022-09-06T12:07:09.609Z,99789.91
2022-09-06T12:09:46.511Z,99778.13
2022-09-06T12:11:48.788Z,99779.34
2022-09-06T12:14:00.912Z,99777.25
2022-09-06T12:16:02.756Z,99778.47
2022-09-06T12:18:04.420Z,99782.25
2022-09-06T12:20:07.022Z,99778.88
2022-09-06T12:22:47.097Z,99779.00
2022-09-06T12:24:48.627Z,99780.91
2022-09-06T12:26:55.573Z,99758.25
2022-09-06T12:28:58.318Z,99758.53
2022-09-06T12:31:00.122Z,99759.19
2022-09-06T12:33:05.731Z,99753.41
2022-09-06T12:37:50.735Z,99756.06
2022-09-06T12:39:59.548Z,99753.03
2022-09-06T12:42:07.278Z,99750.34
2022-09-06T12:44:09.710Z,99730.75
2022-09-06T12:46:11.609Z,99727.88
2022-09-06T12:48:35.529Z,99722.03
2022-09-06T12:50:38.177Z,99721.53
2022-09-06T12:52:46.744Z,99722.41
2022-09-06T12:54:50.465Z,99718.72
2022-09-06T12:56:53.012Z,99711.00
2022-09-06T12:59:10.773Z,99708.91
2022-09-06T13:01:34.487Z,99704.94
2022-09-06T13:04:08.474Z,99725.94
2022-09-06T13:06:20.399Z,99725.19
2022-09-06T13:08:42.623Z,99708.63
2022-09-06T13:10:47.566Z,99706.19
2022-09-06T13:12:53.212Z,99716.06
2022-09-06T13:15:04.663Z,99712.38
2022-09-06T13:17:06.289Z,99700.66
2022-09-06T13:19:16.698Z,99693.97
2022-09-06T13:21:34.153Z,99690.81
2022-09-06T13:23:50.463Z,99690.41
2022-09-06T13:25:53.940Z,99696.22
2022-09-06T13:28:01.541Z,99693.09
2022-09-06T13:30:10.392Z,99676.84
2022-09-06T13:32:14.613Z,99691.19
2022-09-06T13:34:30.181Z,99691.72
2022-09-06T13:36:33.837Z,99698.72
2022-09-06T13:38:42.679Z,99691.19
2022-09-06T13:41:09.305Z,99696.00
2022-09-06T13:43:11.514Z,99695.88
2022-09-06T13:45:27.707Z,99683.47
2022-09-06T13:47:30.250Z,99682.63
2022-09-06T13:49:32.946Z,99672.44
2022-09-06T13:51:35.521Z,99680.72
2022-09-06T13:53:37.214Z,99660.38
2022-09-06T13:55:38.954Z,99653.44
2022-09-06T13:57:40.514Z,99665.22
2022-09-06T13:59:43.109Z,99671.38
2022-09-06T14:01:47.182Z,99651.78
2022-09-06T14:03:50.260Z,99659.78
2022-09-06T14:05:51.885Z,99645.25
2022-09-06T14:07:53.775Z,99652.91
2022-09-06T14:09:55.652Z,99649.25
2022-09-06T14:11:57.534Z,99651.44
2022-09-06T14:13:59.550Z,99649.16
2022-09-06T14:16:01.366Z,99648.06
2022-09-06T14:18:03.034Z,99635.97
2022-09-06T14:20:04.953Z,99650.66
2022-09-06T14:22:07.368Z,99629.31
2022-09-06T14:24:09.388Z,99637.75
2022-09-06T14:26:12.041Z,99630.56
2022-09-06T14:28:13.679Z,99631.09
2022-09-06T14:30:15.820Z,99641.09
2022-09-06T14:32:22.252Z,99644.84
2022-09-06T14:34:25.808Z,99638.94
2022-09-06T14:36:29.587Z,99631.97
2022-09-06T14:38:31.171Z,99623.38
2022-09-06T14:40:37.676Z,99620.53
2022-09-06T14:42:39.318Z,99639.06
2022-09-06T14:44:40.924Z,99629.38
2022-09-06T14:46:42.633Z,99622.22
2022-09-06T14:48:45.356Z,99628.97
2022-09-06T14:50:47.094Z,99620.19
2022-09-06T14:52:48.680Z,99603.50
2022-09-06T14:54:50.284Z,99608.81
2022-09-06T14:56:51.884Z,99619.44
2022-09-06T14:58:57.301Z,99617.78
2022-09-06T15:01:09.248Z,99611.06
2022-09-06T15:03:10.839Z,99619.13
2022-09-06T15:05:12.470Z,99632.84
2022-09-06T15:07:14.161Z,99621.28
2022-09-06T15:09:16.897Z,99624.41
2022-09-06T15:11:51.852Z,99630.13
2022-09-06T15:13:53.416Z,99633.59
2022-09-06T15:15:55.911Z,99616.63
2022-09-06T15:17:57.680Z,99608.34
2022-09-06T15:19:59.311Z,99613.56
2022-09-06T15:22:00.893Z,99608.25
2022-09-06T15:24:03.373Z,99606.06
2022-09-06T15:26:08.376Z,99611.09
2022-09-06T15:28:09.955Z,99609.81
2022-09-06T15:30:12.132Z,99598.00
2022-09-06T15:32:13.751Z,99603.63
2022-09-06T15:34:15.322Z,99605.19
2022-09-06T15:36:17.554Z,99600.66
2022-09-06T15:38:19.121Z,99596.78
2022-09-06T15:40:21.745Z,99594.06
2022-09-06T15:42:23.335Z,99589.84
2022-09-06T15:44:24.944Z,99600.25
2022-09-06T15:46:57.655Z,99589.09
2022-09-06T15:48:59.245Z,99585.47
2022-09-06T15:51:02.728Z,99569.47
2022-09-06T15:53:04.289Z,99556.44
2022-09-06T15:55:24.691Z,99554.19
2022-09-06T15:57:26.271Z,99562.94
2022-09-06T15:59:27.981Z,99560.13
2022-09-06T16:01:29.904Z,99562.56
2022-09-06T16:03:33.105Z,99561.72
2022-09-06T16:07:57.468Z,99556.41
2022-09-06T16:10:01.344Z,99561.72
2022-09-06T16:12:03.349Z,99562.56
2022-09-06T16:14:07.694Z,99553.06
2022-09-06T16:16:13.218Z,99553.44
2022-09-06T16:18:15.334Z,99552.53
2022-09-06T16:20:17.504Z,99558.44
2022-09-06T16:22:20.311Z,99555.63
2022-09-06T16:24:23.109Z,99561.28
2022-09-06T16:26:27.646Z,99561.41
2022-09-06T16:28:31.094Z,99557.78
2022-09-06T16:30:33.176Z,99551.59
2022-09-06T16:32:35.301Z,99559.13
2022-09-06T16:34:40.998Z,99550.72
2022-09-06T16:36:43.187Z,99560.63
2022-09-06T16:38:45.534Z,99554.44
2022-09-06T16:40:47.543Z,99555.25
2022-09-06T16:42:49.505Z,99550.41
2022-09-06T16:44:52.991Z,99554.69
2022-09-06T16:46:57.322Z,99554.88
2022-09-06T16:49:03.027Z,99559.66
2022-09-06T16:51:14.058Z,99559.13
2022-09-06T16:53:20.278Z,99568.25
2022-09-06T16:55:24.131Z,99546.47
2022-09-06T16:57:26.162Z,99543.56
2022-09-06T16:59:28.331Z,99556.84
2022-09-06T17:01:32.406Z,99556.69
2022-09-06T17:03:38.583Z,99552.50
2022-09-06T17:05:41.312Z,99562.94
2022-09-06T17:07:43.721Z,99569.31
2022-09-06T17:09:46.157Z,99556.78
2022-09-06T17:11:50.275Z,99563.09
2022-09-06T17:13:54.143Z,99565.88
2022-09-06T17:16:14.370Z,99556.31
2022-09-06T17:18:17.464Z,99558.09
2022-09-06T17:20:20.802Z,99554.16
2022-09-06T17:22:22.875Z,99552.22
2022-09-06T17:24:27.819Z,99558.59
2022-09-06T17:26:30.908Z,99547.59
2022-09-06T17:28:37.787Z,99539.03
2022-09-06T17:30:39.925Z,99533.41
2022-09-06T17:32:41.825Z,99528.47
2022-09-06T17:34:44.330Z,99523.66
2022-09-06T17:36:46.423Z,99527.88
2022-09-06T17:38:53.381Z,99516.34
2022-09-06T17:41:00.986Z,99508.59
2022-09-06T17:43:04.777Z,99512.72
2022-09-06T17:45:07.141Z,99519.75
2022-09-06T17:47:12.884Z,99517.47
2022-09-06T17:49:18.224Z,99525.75
2022-09-06T17:51:20.395Z,99523.13
2022-09-06T17:53:23.275Z,99528.63
2022-09-06T17:55:27.095Z,99531.59
2022-09-06T17:57:29.126Z,99540.31
2022-09-06T17:59:35.125Z,99531.81
2022-09-06T18:01:41.215Z,99532.09
2022-09-06T18:03:43.574Z,99539.47
2022-09-06T18:05:47.068Z,99529.84
2022-09-06T18:07:49.497Z,99530.53
2022-09-06T18:09:53.051Z,99526.38
2022-09-06T18:11:55.162Z,99524.81
2022-09-06T18:13:57.287Z,99523.38
2022-09-06T18:16:02.973Z,99531.38
2022-09-06T18:18:05.277Z,99534.81
2022-09-06T18:20:08.875Z,99545.00
2022-09-06T18:22:11.619Z,99544.50
2022-09-06T18:24:16.541Z,99560.69
2022-09-06T18:26:19.023Z,99570.09
2022-09-06T18:28:21.062Z,99561.00
2022-09-06T18:30:23.438Z,99557.19
2022-09-06T18:32:25.756Z,99563.28
2022-09-06T18:34:27.770Z,99567.56
2022-09-06T18:36:32.444Z,99567.16
2022-09-06T18:38:35.307Z,99563.41
2022-09-06T18:40:37.835Z,99560.81
2022-09-06T18:42:44.675Z,99554.84
2022-09-06T18:44:47.226Z,99562.63
2022-09-06T18:46:50.143Z,99546.38
2022-09-06T18:48:52.847Z,99555.91
2022-09-06T18:50:59.729Z,99554.22
2022-09-06T18:53:02.051Z,99556.22
2022-09-06T18:55:04.524Z,99564.28
2022-09-06T18:57:07.028Z,99555.03
2022-09-06T18:59:10.938Z,99542.31
2022-09-06T19:01:17.812Z,99551.44
2022-09-06T19:03:20.296Z,99554.00
2022-09-06T19:05:22.521Z,99555.16
2022-09-06T19:07:24.771Z,99576.31
2022-09-06T19:09:27.042Z,99569.06
2022-09-06T19:11:29.450Z,99571.34
2022-09-06T19:13:34.022Z,99557.78
2022-09-06T19:15:37.137Z,99551.84
2022-09-06T19:17:39.434Z,99549.78
2022-09-06T19:19:41.811Z,99555.22
2022-09-06T19:21:45.690Z,99547.97
2022-09-06T19:23:56.373Z,99542.53
2022-09-06T19:26:07.618Z,99544.72
2022-09-06T19:28:09.855Z,99540.16
2022-09-06T19:30:12.796Z,99550.25
2022-09-06T19:32:15.393Z,99545.03
2022-09-06T19:34:17.707Z,99535.78
2022-09-06T19:36:21.889Z,99537.66
2022-09-06T19:38:24.156Z,99549.69
2022-09-06T19:40:25.796Z,99548.53
2022-09-06T19:42:27.430Z,99539.47
2022-09-06T19:44:29.130Z,99539.72
2022-09-06T19:46:30.843Z,99522.97
2022-09-06T19:48:33.491Z,99523.38
2022-09-06T19:50:37.050Z,99522.69
2022-09-06T19:52:38.673Z,99523.81
2022-09-06T19:54:40.332Z,99514.88
2022-09-06T19:56:42.248Z,99507.47
2022-09-06T19:58:44.953Z,99509.91
2022-09-06T20:00:46.634Z,99511.78
2022-09-06T20:02:48.483Z,99528.22
2022-09-06T20:04:50.190Z,99526.59
2022-09-06T20:06:51.827Z,99535.91
2022-09-06T20:08:55.274Z,99541.34
2022-09-06T20:10:59.699Z,99538.19
2022-09-06T20:13:01.330Z,99543.16
2022-09-06T20:15:03.161Z,99538.69
2022-09-06T20:17:29.663Z,99540.34
2022-09-06T20:19:26.586Z,99528.69
2022-09-06T20:21:29.238Z,99536.06
2022-09-06T20:23:32.755Z,99535.22
2022-09-06T20:25:34.469Z,99545.56
2022-09-06T20:27:36.133Z,99537.81
2022-09-06T20:29:37.749Z,99552.25
2022-09-06T20:31:39.505Z,99540.81
2022-09-06T20:33:42.891Z,99538.25
2022-09-06T20:35:55.808Z,99541.63
2022-09-06T20:37:57.481Z,99524.94
2022-09-06T20:39:59.220Z,99514.00
2022-09-06T20:42:00.861Z,99533.53
2022-09-06T20:44:02.806Z,99523.63
2022-09-06T20:46:12.849Z,99524.88
2022-09-06T20:48:14.507Z,99539.75
2022-09-06T20:50:16.854Z,99544.75
2022-09-06T20:52:18.482Z,99547.38
2022-09-06T20:54:20.092Z,99546.72
2022-09-06T20:56:24.170Z,99550.25
2022-09-06T20:58:26.822Z,99562.41
2022-09-06T21:00:28.696Z,99552.94
2022-09-06T21:02:30.449Z,99556.09
2022-09-06T21:04:32.119Z,99563.63
2022-09-06T21:06:35.893Z,99583.16
2022-09-06T21:08:41.997Z,99570.84
2022-09-06T21:10:44.657Z,99583.94
2022-09-06T21:12:46.503Z,99577.66
2022-09-06T21:14:48.622Z,99581.06
2022-09-06T21:16:50.315Z,99592.16
2022-09-06T21:18:57.218Z,99590.97
2022-09-06T21:21:07.974Z,99590.00
2022-09-06T21:23:09.613Z,99579.09
2022-09-06T21:25:11.493Z,99585.44
2022-09-06T21:27:13.168Z,99575.00
2022-09-06T21:29:14.817Z,99585.09
2022-09-06T21:31:24.702Z,99586.78
2022-09-06T21:33:34.249Z,99572.72
2022-09-06T21:35:36.315Z,99580.84
2022-09-06T21:37:37.963Z,99585.53
2022-09-06T21:39:39.822Z,99580.47
2022-09-06T21:41:43.108Z,99585.09
2022-09-06T21:43:45.659Z,99581.50
2022-09-06T21:45:47.344Z,99579.00
2022-09-06T21:47:48.952Z,99580.50
2022-09-06T21:49:50.571Z,99578.47
2022-09-06T21:51:52.374Z,99587.47
2022-09-06T21:53:54.241Z,99587.22
2022-09-06T21:56:03.433Z,99585.03
2022-09-06T21:58:05.070Z,99588.25
2022-09-06T22:00:07.366Z,99588.28
2022-09-06T22:02:09.707Z,99590.34
2022-09-06T22:04:11.493Z,99577.59
2022-09-06T22:06:22.014Z,99561.94
2022-09-06T22:08:24.274Z,99557.53
2022-09-06T22:10:26.587Z,99558.41
2022-09-06T22:12:28.687Z,99561.25
2022-09-06T22:14:30.322Z,99563.59
2022-09-06T22:16:37.327Z,99558.41
2022-09-06T22:18:39.569Z,99554.22
2022-09-06T22:20:41.259Z,99551.66
2022-09-06T22:22:46.255Z,99553.06
2022-09-06T22:24:47.932Z,99549.84
2022-09-06T22:26:49.542Z,99539.97
2022-09-06T22:28:59.300Z,99548.22
2022-09-06T22:31:01.303Z,99543.03
2022-09-06T22:33:02.917Z,99542.75
2022-09-06T22:35:06.104Z,99556.69
2022-09-06T22:37:07.697Z,99546.47
2022-09-06T22:39:09.658Z,99551.09
2022-09-06T22:41:11.998Z,99553.31
2022-09-06T22:43:14.949Z,99549.22
2022-09-06T22:45:16.671Z,99550.09
2022-09-06T22:47:18.421Z,99557.72
2022-09-06T22:49:20.122Z,99545.66
2022-09-06T22:51:21.829Z,99551.44
2022-09-06T22:53:23.526Z,99541.00
2022-09-06T22:55:25.252Z,99537.03
2022-09-06T22:57:27.167Z,99536.91
2022-09-06T22:59:28.941Z,99519.81
2022-09-06T23:01:32.668Z,99517.50
2022-09-06T23:03:35.390Z,99509.91
2022-09-06T23:05:37.278Z,99493.78
2022-09-06T23:07:38.972Z,99504.09
2022-09-06T23:09:40.618Z,99471.38
2022-09-06T23:11:42.377Z,99493.81
2022-09-06T23:13:44.750Z,99484.00
2022-09-06T23:15:47.749Z,99477.81
2022-09-06T23:17:49.496Z,99491.09
2022-09-06T23:19:51.551Z,99485.63
2022-09-06T23:21:53.167Z,99467.94
2022-09-06T23:23:56.442Z,99472.53
2022-09-06T23:26:03.773Z,99461.31
2022-09-06T23:28:06.138Z,99467.00
2022-09-06T23:30:08.725Z,99475.50
2022-09-06T23:32:11.099Z,99470.34
2022-09-06T23:34:13.304Z,99465.31
2022-09-06T23:36:15.047Z,99492.00
2022-09-06T23:38:16.652Z,99477.63
2022-09-06T23:40:19.649Z,99472.09
2022-09-06T23:42:23.051Z,99496.19
2022-09-06T23:44:24.838Z,99494.19
2022-09-06T23:46:26.822Z,99505.25
2022-09-06T23:48:29.029Z,99498.22
2022-09-06T23:50:30.708Z,99505.91
2022-09-06T23:52:32.328Z,99491.41
2022-09-06T23:54:34.037Z,99492.91
2022-09-06T23:56:35.688Z,99490.75
2022-09-06T23:58:38.241Z,99493.25
